sensor_id;sensor_type;location;lat;lon;timestamp;pressure;altitude;pressure_sealevel;temperature;humidity
62458;BME280;48509;52.122;5.250;2023-02-04T00:01:37;103236.99999999999;;;10.32;91.04
62458;BME280;48509;52.122;5.250;2023-02-04T00:04:50;103239.00000000001;;;10.42;90.83
62458;BME280;48509;52.122;5.250;2023-02-04T00:06:27;103249.0;;;10.46;90.2
62458;BME280;48509;52.122;5.250;2023-02-04T00:08:04;103247.0;;;10.25;91.07
62458;BME280;48509;52.122;5.250;2023-02-04T00:09:40;103248.0;;;10.43;90.83
62458;BME280;48509;52.122;5.250;2023-02-04T00:12:52;103248.0;;;10.39;90.82
62458;BME280;48509;52.122;5.250;2023-02-04T00:14:28;103250.0;;;10.37;90.68
62458;BME280;48509;52.122;5.250;2023-02-04T00:16:05;103251.0;;;10.35;91.18
62458;BME280;48509;52.122;5.250;2023-02-04T00:19:17;103253.0;;;10.18;92.04
62458;BME280;48509;52.122;5.250;2023-02-04T00:20:54;103261.99999999999;;;10.22;91.56
62458;BME280;48509;52.122;5.250;2023-02-04T00:22:30;103259.99999999999;;;10.11;92.28
62458;BME280;48509;52.122;5.250;2023-02-04T00:25:42;103264.00000000001;;;10.19;91.81
62458;BME280;48509;52.122;5.250;2023-02-04T00:27:18;103266.00000000001;;;10.01;93.17
62458;BME280;48509;52.122;5.250;2023-02-04T00:28:55;103270.0;;;10.08;93.0
62458;BME280;48509;52.122;5.250;2023-02-04T00:32:08;103272.0;;;9.99;93.79
62458;BME280;48509;52.122;5.250;2023-02-04T00:33:44;103268.0;;;9.81;94.56
62458;BME280;48509;52.122;5.250;2023-02-04T00:35:20;103269.0;;;9.89;94.12
62458;BME280;48509;52.122;5.250;2023-02-04T00:36:57;103268.0;;;9.91;93.76
62458;BME280;48509;52.122;5.250;2023-02-04T00:40:10;103271.0;;;9.83;94.3
62458;BME280;48509;52.122;5.250;2023-02-04T00:41:47;103271.0;;;9.83;94.89
62458;BME280;48509;52.122;5.250;2023-02-04T00:43:23;103275.0;;;9.98;93.82
62458;BME280;48509;52.122;5.250;2023-02-04T00:46:35;103283.99999999999;;;9.82;94.76
62458;BME280;48509;52.122;5.250;2023-02-04T00:48:11;103291.00000000001;;;9.64;95.96
62458;BME280;48509;52.122;5.250;2023-02-04T00:49:47;103291.00000000001;;;9.78;95.56
62458;BME280;48509;52.122;5.250;2023-02-04T00:53:01;103291.00000000001;;;9.72;95.98
62458;BME280;48509;52.122;5.250;2023-02-04T00:54:37;103288.00000000001;;;9.76;95.87
62458;BME280;48509;52.122;5.250;2023-02-04T00:56:13;103290.00000000001;;;9.68;96.51
62458;BME280;48509;52.122;5.250;2023-02-04T00:57:50;103292.0;;;9.66;96.35
62458;BME280;48509;52.122;5.250;2023-02-04T01:01:03;103296.0;;;9.55;97.73
62458;BME280;48509;52.122;5.250;2023-02-04T01:02:40;103296.0;;;9.63;97.33
62458;BME280;48509;52.122;5.250;2023-02-04T01:04:16;103298.0;;;9.57;98.08
62458;BME280;48509;52.122;5.250;2023-02-04T01:07:29;103292.0;;;9.73;97.15
62458;BME280;48509;52.122;5.250;2023-02-04T01:09:05;103297.0;;;9.65;97.54
62458;BME280;48509;52.122;5.250;2023-02-04T01:10:41;103297.0;;;9.72;97.18
62458;BME280;48509;52.122;5.250;2023-02-04T01:13:54;103304.0;;;9.77;96.64
62458;BME280;48509;52.122;5.250;2023-02-04T01:15:30;103308.0;;;9.57;98.1
62458;BME280;48509;52.122;5.250;2023-02-04T01:17:06;103308.99999999999;;;9.59;98.23
62458;BME280;48509;52.122;5.250;2023-02-04T01:18:42;103315.00000000001;;;9.48;99.26
62458;BME280;48509;52.122;5.250;2023-02-04T01:21:55;103318.0;;;9.53;98.91
62458;BME280;48509;52.122;5.250;2023-02-04T01:23:32;103318.0;;;9.61;98.83
62458;BME280;48509;52.122;5.250;2023-02-04T01:25:08;103320.0;;;9.65;98.38
62458;BME280;48509;52.122;5.250;2023-02-04T01:28:20;103326.0;;;9.48;99.52
62458;BME280;48509;52.122;5.250;2023-02-04T01:29:56;103324.0;;;9.53;99.36
62458;BME280;48509;52.122;5.250;2023-02-04T01:31:33;103325.0;;;9.49;99.88
62458;BME280;48509;52.122;5.250;2023-02-04T01:34:46;103327.0;;;9.42;100.0
62458;BME280;48509;52.122;5.250;2023-02-04T01:36:22;103329.0;;;9.55;99.55
62458;BME280;48509;52.122;5.250;2023-02-04T01:37:58;103333.0;;;9.53;99.2
62458;BME280;48509;52.122;5.250;2023-02-04T01:41:12;103338.00000000001;;;9.34;100.0
62458;BME280;48509;52.122;5.250;2023-02-04T01:42:49;103340.00000000001;;;9.32;100.0
62458;BME280;48509;52.122;5.250;2023-02-04T01:44:27;103344.0;;;9.23;100.0
62458;BME280;48509;52.122;5.250;2023-02-04T01:46:04;103343.0;;;9.28;100.0
62458;BME280;48509;52.122;5.250;2023-02-04T01:49:19;103348.0;;;9.18;100.0
62458;BME280;48509;52.122;5.250;2023-02-04T01:51:03;103350.0;;;9.14;100.0
62458;BME280;48509;52.122;5.250;2023-02-04T01:52:41;103352.0;;;9.32;100.0
62458;BME280;48509;52.122;5.250;2023-02-04T01:54:20;103356.0;;;9.22;100.0
62458;BME280;48509;52.122;5.250;2023-02-04T01:57:35;103357.0;;;9.27;100.0
62458;BME280;48509;52.122;5.250;2023-02-04T01:59:12;103358.0;;;9.41;100.0
62458;BME280;48509;52.122;5.250;2023-02-04T02:00:49;103358.0;;;9.36;100.0
62458;BME280;48509;52.122;5.250;2023-02-04T02:04:28;103358.99999999999;;;9.31;100.0
62458;BME280;48509;52.122;5.250;2023-02-04T02:06:08;103361.99999999999;;;9.39;100.0
62458;BME280;48509;52.122;5.250;2023-02-04T02:07:45;103358.99999999999;;;9.39;100.0
62458;BME280;48509;52.122;5.250;2023-02-04T02:09:21;103366.00000000001;;;9.39;100.0
62458;BME280;48509;52.122;5.250;2023-02-04T02:12:34;103367.0;;;9.21;100.0
62458;BME280;48509;52.122;5.250;2023-02-04T02:14:11;103364.00000000001;;;9.08;100.0
62458;BME280;48509;52.122;5.250;2023-02-04T02:15:48;103367.0;;;9.22;100.0
62458;BME280;48509;52.122;5.250;2023-02-04T02:17:24;103367.0;;;9.05;100.0
62458;BME280;48509;52.122;5.250;2023-02-04T02:20:39;103367.0;;;9.22;100.0
62458;BME280;48509;52.122;5.250;2023-02-04T02:22:22;103368.0;;;9.32;100.0
62458;BME280;48509;52.122;5.250;2023-02-04T02:24:24;103370.0;;;9.14;100.0
62458;BME280;48509;52.122;5.250;2023-02-04T02:26:01;103375.0;;;9.17;100.0
62458;BME280;48509;52.122;5.250;2023-02-04T02:29:14;103378.0;;;9.09;100.0
62458;BME280;48509;52.122;5.250;2023-02-04T02:30:50;103377.0;;;9.31;100.0
62458;BME280;48509;52.122;5.250;2023-02-04T02:32:27;103377.0;;;9.44;100.0
62458;BME280;48509;52.122;5.250;2023-02-04T02:34:03;103378.0;;;9.34;100.0
62458;BME280;48509;52.122;5.250;2023-02-04T02:37:21;103378.0;;;9.16;100.0
62458;BME280;48509;52.122;5.250;2023-02-04T02:38:59;103376.0;;;9.22;100.0
62458;BME280;48509;52.122;5.250;2023-02-04T02:40:35;103375.0;;;9.14;100.0
62458;BME280;48509;52.122;5.250;2023-02-04T02:43:51;103375.0;;;9.01;100.0
62458;BME280;48509;52.122;5.250;2023-02-04T02:45:30;103375.0;;;9.18;100.0
62458;BME280;48509;52.122;5.250;2023-02-04T02:47:11;103377.0;;;9.15;100.0
62458;BME280;48509;52.122;5.250;2023-02-04T02:48:49;103376.0;;;9.15;100.0
62458;BME280;48509;52.122;5.250;2023-02-04T02:52:04;103375.0;;;9.19;100.0
62458;BME280;48509;52.122;5.250;2023-02-04T02:53:40;103375.0;;;9.11;100.0
62458;BME280;48509;52.122;5.250;2023-02-04T02:55:18;103381.0;;;9.19;100.0
62458;BME280;48509;52.122;5.250;2023-02-04T02:58:34;103381.0;;;9.11;100.0
62458;BME280;48509;52.122;5.250;2023-02-04T03:00:14;103383.0;;;9.19;100.0
62458;BME280;48509;52.122;5.250;2023-02-04T03:01:53;103381.0;;;9.08;100.0
62458;BME280;48509;52.122;5.250;2023-02-04T03:06:49;103382.0;;;8.98;100.0
62458;BME280;48509;52.122;5.250;2023-02-04T03:08:26;103389.00000000001;;;9.06;100.0
62458;BME280;48509;52.122;5.250;2023-02-04T03:10:04;103392.0;;;9.11;100.0
62458;BME280;48509;52.122;5.250;2023-02-04T03:11:40;103398.0;;;9.24;100.0
62458;BME280;48509;52.122;5.250;2023-02-04T03:14:54;103391.00000000001;;;8.97;100.0
62458;BME280;48509;52.122;5.250;2023-02-04T03:16:33;103392.0;;;9.01;100.0
62458;BME280;48509;52.122;5.250;2023-02-04T03:18:11;103383.0;;;8.89;100.0
62458;BME280;48509;52.122;5.250;2023-02-04T03:21:25;103383.0;;;8.97;100.0
62458;BME280;48509;52.122;5.250;2023-02-04T03:23:00;103381.0;;;8.83;100.0
62458;BME280;48509;52.122;5.250;2023-02-04T03:24:37;103381.0;;;8.74;100.0
62458;BME280;48509;52.122;5.250;2023-02-04T03:27:50;103388.00000000001;;;8.89;100.0
62458;BME280;48509;52.122;5.250;2023-02-04T03:29:27;103378.0;;;8.83;100.0
62458;BME280;48509;52.122;5.250;2023-02-04T03:31:03;103379.0;;;8.64;100.0
62458;BME280;48509;52.122;5.250;2023-02-04T03:32:40;103383.0;;;8.56;100.0
62458;BME280;48509;52.122;5.250;2023-02-04T03:35:53;103383.99999999999;;;8.49;100.0
62458;BME280;48509;52.122;5.250;2023-02-04T03:37:30;103381.0;;;8.49;100.0
62458;BME280;48509;52.122;5.250;2023-02-04T03:39:06;103386.99999999999;;;8.58;100.0
62458;BME280;48509;52.122;5.250;2023-02-04T03:42:20;103390.00000000001;;;8.56;100.0
62458;BME280;48509;52.122;5.250;2023-02-04T03:43:56;103388.00000000001;;;8.64;100.0
62458;BME280;48509;52.122;5.250;2023-02-04T03:45:33;103383.99999999999;;;8.48;100.0
62458;BME280;48509;52.122;5.250;2023-02-04T03:48:45;103397.0;;;8.35;100.0
62458;BME280;48509;52.122;5.250;2023-02-04T03:50:21;103402.0;;;8.32;100.0
62458;BME280;48509;52.122;5.250;2023-02-04T03:51:57;103406.0;;;8.23;100.0
62458;BME280;48509;52.122;5.250;2023-02-04T03:53:33;103407.0;;;8.03;100.0
62458;BME280;48509;52.122;5.250;2023-02-04T03:56:46;103404.0;;;8.23;100.0
62458;BME280;48509;52.122;5.250;2023-02-04T03:58:22;103408.0;;;8.02;100.0
62458;BME280;48509;52.122;5.250;2023-02-04T03:59:58;103411.99999999999;;;8.0;100.0
62458;BME280;48509;52.122;5.250;2023-02-04T04:03:10;103404.0;;;7.83;100.0
62458;BME280;48509;52.122;5.250;2023-02-04T04:04:47;103408.0;;;7.74;100.0
62458;BME280;48509;52.122;5.250;2023-02-04T04:06:23;103407.0;;;7.65;100.0
62458;BME280;48509;52.122;5.250;2023-02-04T04:09:36;103413.00000000001;;;7.75;100.0
62458;BME280;48509;52.122;5.250;2023-02-04T04:11:12;103414.00000000001;;;7.74;100.0
62458;BME280;48509;52.122;5.250;2023-02-04T04:12:49;103411.99999999999;;;7.54;100.0
62458;BME280;48509;52.122;5.250;2023-02-04T04:14:26;103408.0;;;7.58;100.0
62458;BME280;48509;52.122;5.250;2023-02-04T04:17:39;103403.0;;;7.43;100.0
62458;BME280;48509;52.122;5.250;2023-02-04T04:19:15;103407.0;;;7.57;100.0
62458;BME280;48509;52.122;5.250;2023-02-04T04:20:51;103408.0;;;7.31;100.0
62458;BME280;48509;52.122;5.250;2023-02-04T04:24:04;103408.99999999999;;;7.19;100.0
62458;BME280;48509;52.122;5.250;2023-02-04T04:25:41;103416.00000000001;;;7.4;100.0
62458;BME280;48509;52.122;5.250;2023-02-04T04:27:17;103415.00000000001;;;7.24;100.0
62458;BME280;48509;52.122;5.250;2023-02-04T04:30:29;103417.0;;;7.23;100.0
62458;BME280;48509;52.122;5.250;2023-02-04T04:32:06;103415.00000000001;;;7.19;100.0
62458;BME280;48509;52.122;5.250;2023-02-04T04:33:42;103417.0;;;6.99;100.0
62458;BME280;48509;52.122;5.250;2023-02-04T04:36:54;103423.0;;;7.12;100.0
62458;BME280;48509;52.122;5.250;2023-02-04T04:38:30;103423.0;;;7.21;100.0
62458;BME280;48509;52.122;5.250;2023-02-04T04:40:09;103425.0;;;7.26;100.0
62458;BME280;48509;52.122;5.250;2023-02-04T04:41:47;103425.0;;;7.2;100.0
62458;BME280;48509;52.122;5.250;2023-02-04T04:44:59;103431.0;;;7.17;100.0
62458;BME280;48509;52.122;5.250;2023-02-04T04:46:35;103427.0;;;6.94;100.0
62458;BME280;48509;52.122;5.250;2023-02-04T04:48:11;103432.0;;;7.03;100.0
62458;BME280;48509;52.122;5.250;2023-02-04T04:51:24;103426.0;;;6.91;100.0
62458;BME280;48509;52.122;5.250;2023-02-04T04:53:00;103426.0;;;6.87;100.0
62458;BME280;48509;52.122;5.250;2023-02-04T04:54:36;103429.0;;;6.85;100.0
62458;BME280;48509;52.122;5.250;2023-02-04T04:57:48;103419.0;;;6.89;100.0
62458;BME280;48509;52.122;5.250;2023-02-04T04:59:24;103420.0;;;6.68;100.0
62458;BME280;48509;52.122;5.250;2023-02-04T05:01:01;103417.0;;;6.68;100.0
62458;BME280;48509;52.122;5.250;2023-02-04T05:02:37;103422.0;;;6.71;100.0
62458;BME280;48509;52.122;5.250;2023-02-04T05:05:49;103421.0;;;6.77;100.0
62458;BME280;48509;52.122;5.250;2023-02-04T05:07:25;103425.0;;;6.86;100.0
62458;BME280;48509;52.122;5.250;2023-02-04T05:09:02;103422.0;;;6.92;100.0
62458;BME280;48509;52.122;5.250;2023-02-04T05:12:16;103423.0;;;6.98;100.0
62458;BME280;48509;52.122;5.250;2023-02-04T05:13:53;103423.0;;;7.15;100.0
62458;BME280;48509;52.122;5.250;2023-02-04T05:15:29;103428.0;;;7.0;100.0
62458;BME280;48509;52.122;5.250;2023-02-04T05:18:42;103427.0;;;7.17;100.0
62458;BME280;48509;52.122;5.250;2023-02-04T05:20:19;103430.0;;;7.29;100.0
62458;BME280;48509;52.122;5.250;2023-02-04T05:21:56;103427.0;;;7.18;100.0
62458;BME280;48509;52.122;5.250;2023-02-04T05:23:33;103429.0;;;7.14;100.0
62458;BME280;48509;52.122;5.250;2023-02-04T05:26:46;103430.0;;;7.14;100.0
62458;BME280;48509;52.122;5.250;2023-02-04T05:28:22;103428.0;;;7.15;100.0
62458;BME280;48509;52.122;5.250;2023-02-04T05:29:58;103426.0;;;7.16;100.0
62458;BME280;48509;52.122;5.250;2023-02-04T05:33:11;103426.0;;;7.29;100.0
62458;BME280;48509;52.122;5.250;2023-02-04T05:34:47;103432.0;;;7.25;100.0
62458;BME280;48509;52.122;5.250;2023-02-04T05:36:23;103431.0;;;7.3;100.0
62458;BME280;48509;52.122;5.250;2023-02-04T05:39:35;103424.0;;;7.29;100.0
62458;BME280;48509;52.122;5.250;2023-02-04T05:41:12;103424.0;;;7.41;100.0
62458;BME280;48509;52.122;5.250;2023-02-04T05:42:48;103422.0;;;7.46;100.0
62458;BME280;48509;52.122;5.250;2023-02-04T05:44:24;103428.0;;;7.56;100.0
62458;BME280;48509;52.122;5.250;2023-02-04T05:47:38;103433.99999999999;;;7.68;100.0
62458;BME280;48509;52.122;5.250;2023-02-04T05:49:14;103432.0;;;7.92;100.0
62458;BME280;48509;52.122;5.250;2023-02-04T05:50:51;103442.0;;;7.68;100.0
62458;BME280;48509;52.122;5.250;2023-02-04T05:54:03;103450.0;;;7.83;100.0
62458;BME280;48509;52.122;5.250;2023-02-04T05:55:39;103450.0;;;7.89;100.0
62458;BME280;48509;52.122;5.250;2023-02-04T05:57:15;103466.00000000001;;;8.11;100.0
62458;BME280;48509;52.122;5.250;2023-02-04T06:00:28;103469.0;;;7.97;100.0
62458;BME280;48509;52.122;5.250;2023-02-04T06:02:04;103470.0;;;8.14;100.0
62458;BME280;48509;52.122;5.250;2023-02-04T06:03:40;103472.0;;;8.13;100.0
62458;BME280;48509;52.122;5.250;2023-02-04T06:05:18;103466.00000000001;;;7.97;100.0
62458;BME280;48509;52.122;5.250;2023-02-04T06:08:31;103467.0;;;7.97;100.0
62458;BME280;48509;52.122;5.250;2023-02-04T06:10:08;103470.0;;;8.06;100.0
62458;BME280;48509;52.122;5.250;2023-02-04T06:11:45;103477.0;;;8.03;100.0
62458;BME280;48509;52.122;5.250;2023-02-04T06:14:57;103473.0;;;7.76;100.0
62458;BME280;48509;52.122;5.250;2023-02-04T06:16:34;103474.0;;;7.58;100.0
62458;BME280;48509;52.122;5.250;2023-02-04T06:18:10;103480.0;;;7.66;100.0
62458;BME280;48509;52.122;5.250;2023-02-04T06:21:22;103484.99999999999;;;7.65;100.0
62458;BME280;48509;52.122;5.250;2023-02-04T06:22:58;103494.0;;;7.71;100.0
62458;BME280;48509;52.122;5.250;2023-02-04T06:24:35;103496.0;;;7.82;100.0
62458;BME280;48509;52.122;5.250;2023-02-04T06:27:49;103499.0;;;7.62;100.0
62458;BME280;48509;52.122;5.250;2023-02-04T06:29:25;103502.0;;;7.44;100.0
62458;BME280;48509;52.122;5.250;2023-02-04T06:31:02;103508.0;;;7.35;100.0
62458;BME280;48509;52.122;5.250;2023-02-04T06:32:39;103509.99999999999;;;7.45;100.0
62458;BME280;48509;52.122;5.250;2023-02-04T06:35:52;103516.00000000001;;;7.44;100.0
62458;BME280;48509;52.122;5.250;2023-02-04T06:37:29;103518.0;;;7.6;100.0
62458;BME280;48509;52.122;5.250;2023-02-04T06:39:06;103519.0;;;7.56;100.0
62458;BME280;48509;52.122;5.250;2023-02-04T06:42:18;103517.0;;;7.45;100.0
62458;BME280;48509;52.122;5.250;2023-02-04T06:43:54;103520.0;;;7.64;100.0
62458;BME280;48509;52.122;5.250;2023-02-04T06:45:30;103524.0;;;7.65;100.0
62458;BME280;48509;52.122;5.250;2023-02-04T06:48:42;103533.99999999999;;;7.69;100.0
62458;BME280;48509;52.122;5.250;2023-02-04T06:50:18;103538.00000000001;;;7.52;100.0
62458;BME280;48509;52.122;5.250;2023-02-04T06:51:54;103540.00000000001;;;7.47;100.0
62458;BME280;48509;52.122;5.250;2023-02-04T06:53:30;103543.0;;;7.72;100.0
62458;BME280;48509;52.122;5.250;2023-02-04T06:56:42;103543.0;;;7.72;100.0
62458;BME280;48509;52.122;5.250;2023-02-04T06:58:18;103546.0;;;7.96;100.0
62458;BME280;48509;52.122;5.250;2023-02-04T06:59:54;103547.0;;;7.7;100.0
62458;BME280;48509;52.122;5.250;2023-02-04T07:03:06;103548.0;;;7.61;100.0
62458;BME280;48509;52.122;5.250;2023-02-04T07:04:42;103547.0;;;7.5;100.0
62458;BME280;48509;52.122;5.250;2023-02-04T07:06:18;103551.0;;;7.47;100.0
62458;BME280;48509;52.122;5.250;2023-02-04T07:09:31;103546.0;;;7.4;100.0
62458;BME280;48509;52.122;5.250;2023-02-04T07:11:06;103548.0;;;7.42;100.0
62458;BME280;48509;52.122;5.250;2023-02-04T07:12:42;103548.0;;;7.35;100.0
62458;BME280;48509;52.122;5.250;2023-02-04T07:15:54;103546.0;;;7.41;100.0
62458;BME280;48509;52.122;5.250;2023-02-04T07:17:31;103549.0;;;7.38;100.0
62458;BME280;48509;52.122;5.250;2023-02-04T07:19:07;103552.0;;;7.46;100.0
62458;BME280;48509;52.122;5.250;2023-02-04T07:20:43;103554.0;;;7.57;100.0
62458;BME280;48509;52.122;5.250;2023-02-04T07:23:55;103554.0;;;7.63;100.0
62458;BME280;48509;52.122;5.250;2023-02-04T07:25:32;103550.0;;;7.55;100.0
62458;BME280;48509;52.122;5.250;2023-02-04T07:27:08;103552.0;;;7.54;100.0
62458;BME280;48509;52.122;5.250;2023-02-04T07:30:20;103554.0;;;7.56;100.0
62458;BME280;48509;52.122;5.250;2023-02-04T07:31:56;103561.99999999999;;;7.64;100.0
62458;BME280;48509;52.122;5.250;2023-02-04T07:33:31;103567.0;;;7.69;100.0
62458;BME280;48509;52.122;5.250;2023-02-04T07:36:46;103569.0;;;7.69;100.0
62458;BME280;48509;52.122;5.250;2023-02-04T07:38:22;103575.0;;;7.72;100.0
62458;BME280;48509;52.122;5.250;2023-02-04T07:39:58;103577.0;;;8.02;100.0
62458;BME280;48509;52.122;5.250;2023-02-04T07:41:34;103579.0;;;7.83;100.0
62458;BME280;48509;52.122;5.250;2023-02-04T07:44:46;103578.0;;;7.91;100.0
62458;BME280;48509;52.122;5.250;2023-02-04T07:46:22;103580.0;;;8.09;100.0
62458;BME280;48509;52.122;5.250;2023-02-04T07:47:58;103581.0;;;8.0;100.0
62458;BME280;48509;52.122;5.250;2023-02-04T07:51:09;103581.0;;;8.08;100.0
62458;BME280;48509;52.122;5.250;2023-02-04T07:52:45;103584.99999999999;;;7.94;100.0
62458;BME280;48509;52.122;5.250;2023-02-04T07:54:21;103589.00000000001;;;8.19;100.0
62458;BME280;48509;52.122;5.250;2023-02-04T07:57:33;103589.00000000001;;;8.39;100.0
62458;BME280;48509;52.122;5.250;2023-02-04T07:59:09;103591.00000000001;;;8.39;100.0
62458;BME280;48509;52.122;5.250;2023-02-04T08:00:45;103592.0;;;8.18;100.0
62458;BME280;48509;52.122;5.250;2023-02-04T08:03:57;103595.0;;;8.06;100.0
62458;BME280;48509;52.122;5.250;2023-02-04T08:05:34;103601.0;;;8.07;100.0
62458;BME280;48509;52.122;5.250;2023-02-04T08:07:10;103604.0;;;8.1;100.0
62458;BME280;48509;52.122;5.250;2023-02-04T08:08:46;103602.0;;;8.14;100.0
62458;BME280;48509;52.122;5.250;2023-02-04T08:11:59;103601.0;;;8.08;100.0
62458;BME280;48509;52.122;5.250;2023-02-04T08:13:35;103608.99999999999;;;8.09;100.0
62458;BME280;48509;52.122;5.250;2023-02-04T08:15:12;103613.00000000001;;;8.36;100.0
62458;BME280;48509;52.122;5.250;2023-02-04T08:18:24;103616.00000000001;;;8.34;100.0
62458;BME280;48509;52.122;5.250;2023-02-04T08:20:00;103617.0;;;8.36;100.0
62458;BME280;48509;52.122;5.250;2023-02-04T08:21:36;103619.0;;;8.45;100.0
62458;BME280;48509;52.122;5.250;2023-02-04T08:24:48;103621.0;;;8.53;100.0
62458;BME280;48509;52.122;5.250;2023-02-04T08:26:24;103624.0;;;8.76;100.0
62458;BME280;48509;52.122;5.250;2023-02-04T08:28:01;103625.0;;;8.76;100.0
62458;BME280;48509;52.122;5.250;2023-02-04T08:29:38;103626.0;;;8.71;100.0
62458;BME280;48509;52.122;5.250;2023-02-04T08:32:50;103627.0;;;8.61;100.0
62458;BME280;48509;52.122;5.250;2023-02-04T08:34:26;103624.0;;;8.59;100.0
62458;BME280;48509;52.122;5.250;2023-02-04T08:36:03;103625.0;;;8.72;100.0
62458;BME280;48509;52.122;5.250;2023-02-04T08:39:15;103630.0;;;8.8;100.0
62458;BME280;48509;52.122;5.250;2023-02-04T08:40:52;103631.0;;;8.64;100.0
62458;BME280;48509;52.122;5.250;2023-02-04T08:42:28;103639.00000000001;;;8.63;100.0
62458;BME280;48509;52.122;5.250;2023-02-04T08:45:41;103642.0;;;8.92;100.0
62458;BME280;48509;52.122;5.250;2023-02-04T08:47:17;103641.00000000001;;;8.9;100.0
62458;BME280;48509;52.122;5.250;2023-02-04T08:48:54;103640.00000000001;;;8.73;100.0
62458;BME280;48509;52.122;5.250;2023-02-04T08:52:07;103651.0;;;9.1;100.0
62458;BME280;48509;52.122;5.250;2023-02-04T08:53:44;103647.0;;;9.07;100.0
62458;BME280;48509;52.122;5.250;2023-02-04T08:55:20;103645.0;;;9.13;100.0
62458;BME280;48509;52.122;5.250;2023-02-04T08:56:56;103652.0;;;9.02;100.0
62458;BME280;48509;52.122;5.250;2023-02-04T09:00:10;103654.0;;;9.05;100.0
62458;BME280;48509;52.122;5.250;2023-02-04T09:01:48;103656.0;;;9.05;100.0
62458;BME280;48509;52.122;5.250;2023-02-04T09:03:25;103657.0;;;8.99;100.0
62458;BME280;48509;52.122;5.250;2023-02-04T09:06:37;103656.0;;;9.0;100.0
62458;BME280;48509;52.122;5.250;2023-02-04T09:08:14;103659.99999999999;;;9.13;100.0
62458;BME280;48509;52.122;5.250;2023-02-04T09:09:50;103659.99999999999;;;9.06;100.0
62458;BME280;48509;52.122;5.250;2023-02-04T09:13:03;103658.0;;;9.07;100.0
62458;BME280;48509;52.122;5.250;2023-02-04T09:14:39;103656.0;;;9.22;100.0
62458;BME280;48509;52.122;5.250;2023-02-04T09:16:17;103654.0;;;9.5;100.0
62458;BME280;48509;52.122;5.250;2023-02-04T09:21:12;103652.0;;;9.71;100.0
62458;BME280;48509;52.122;5.250;2023-02-04T09:22:49;103656.0;;;9.8;100.0
62458;BME280;48509;52.122;5.250;2023-02-04T09:24:25;103651.0;;;9.98;100.0
62458;BME280;48509;52.122;5.250;2023-02-04T09:27:40;103658.0;;;9.89;100.0
62458;BME280;48509;52.122;5.250;2023-02-04T09:29:16;103658.0;;;10.06;100.0
62458;BME280;48509;52.122;5.250;2023-02-04T09:30:53;103658.99999999999;;;10.07;100.0
62458;BME280;48509;52.122;5.250;2023-02-04T09:32:28;103658.0;;;9.98;100.0
62458;BME280;48509;52.122;5.250;2023-02-04T09:35:41;103661.99999999999;;;10.13;100.0
62458;BME280;48509;52.122;5.250;2023-02-04T09:37:17;103658.99999999999;;;10.33;100.0
62458;BME280;48509;52.122;5.250;2023-02-04T09:38:53;103658.99999999999;;;10.08;100.0
62458;BME280;48509;52.122;5.250;2023-02-04T09:42:12;103658.99999999999;;;10.18;100.0
62458;BME280;48509;52.122;5.250;2023-02-04T09:43:49;103663.00000000001;;;10.14;100.0
62458;BME280;48509;52.122;5.250;2023-02-04T09:45:28;103658.0;;;10.28;100.0
62458;BME280;48509;52.122;5.250;2023-02-04T09:47:09;103665.00000000001;;;10.23;100.0
62458;BME280;48509;52.122;5.250;2023-02-04T09:50:26;103663.00000000001;;;10.3;100.0
62458;BME280;48509;52.122;5.250;2023-02-04T09:52:03;103667.0;;;10.33;100.0
62458;BME280;48509;52.122;5.250;2023-02-04T09:57:12;103669.0;;;10.33;100.0
62458;BME280;48509;52.122;5.250;2023-02-04T09:58:51;103678.0;;;10.25;100.0
62458;BME280;48509;52.122;5.250;2023-02-04T10:00:29;103678.0;;;10.32;100.0
62458;BME280;48509;52.122;5.250;2023-02-04T10:02:19;103682.0;;;10.47;99.63
62458;BME280;48509;52.122;5.250;2023-02-04T10:04:00;103681.0;;;10.66;98.18
62458;BME280;48509;52.122;5.250;2023-02-04T10:07:16;103683.0;;;10.56;96.92
62458;BME280;48509;52.122;5.250;2023-02-04T10:08:54;103681.0;;;10.55;96.5
62458;BME280;48509;52.122;5.250;2023-02-04T10:10:32;103688.00000000001;;;10.64;96.93
62458;BME280;48509;52.122;5.250;2023-02-04T10:12:08;103683.99999999999;;;10.77;95.19
62458;BME280;48509;52.122;5.250;2023-02-04T10:15:23;103686.99999999999;;;10.88;94.76
62458;BME280;48509;52.122;5.250;2023-02-04T10:17:00;103682.0;;;10.91;93.96
62458;BME280;48509;52.122;5.250;2023-02-04T10:18:38;103683.99999999999;;;11.02;94.15
62458;BME280;48509;52.122;5.250;2023-02-04T10:21:54;103683.99999999999;;;11.11;92.86
62458;BME280;48509;52.122;5.250;2023-02-04T10:23:31;103692.0;;;11.17;91.15
62458;BME280;48509;52.122;5.250;2023-02-04T10:25:11;103689.00000000001;;;11.18;91.07
62458;BME280;48509;52.122;5.250;2023-02-04T10:26:48;103691.00000000001;;;11.18;91.26
62458;BME280;48509;52.122;5.250;2023-02-04T10:30:17;103691.00000000001;;;11.0;90.51
62458;BME280;48509;52.122;5.250;2023-02-04T10:31:55;103691.00000000001;;;10.9;92.14
62458;BME280;48509;52.122;5.250;2023-02-04T10:33:32;103696.0;;;11.0;92.32
62458;BME280;48509;52.122;5.250;2023-02-04T10:35:13;103692.0;;;10.95;92.88
62458;BME280;48509;52.122;5.250;2023-02-04T10:38:29;103692.0;;;11.02;91.44
62458;BME280;48509;52.122;5.250;2023-02-04T10:40:24;103692.0;;;10.92;91.83
62458;BME280;48509;52.122;5.250;2023-02-04T10:42:01;103691.00000000001;;;11.15;91.27
62458;BME280;48509;52.122;5.250;2023-02-04T10:43:38;103695.0;;;11.17;89.85
62458;BME280;48509;52.122;5.250;2023-02-04T10:47:00;103692.0;;;11.23;90.1
62458;BME280;48509;52.122;5.250;2023-02-04T10:48:39;103692.0;;;11.24;90.46
62458;BME280;48509;52.122;5.250;2023-02-04T10:50:19;103693.0;;;11.23;89.25
62458;BME280;48509;52.122;5.250;2023-02-04T10:51:55;103694.0;;;11.15;90.92
62458;BME280;48509;52.122;5.250;2023-02-04T10:56:17;103690.00000000001;;;11.25;88.72
62458;BME280;48509;52.122;5.250;2023-02-04T10:59:32;103692.0;;;11.28;89.16